sensor_id;sensor_type;location;lat;lon;timestamp;P1;durP1;ratioP1;P2;durP2;ratioP2
16593;SDS011;8410;52.532;13.336;2023-05-23T00:01:03;5.45;;;4.10;;
16593;SDS011;8410;52.532;13.336;2023-05-23T00:03:32;4.60;;;3.55;;
16593;SDS011;8410;52.532;13.336;2023-05-23T00:06:01;4.30;;;3.58;;
16593;SDS011;8410;52.532;13.336;2023-05-23T00:08:29;5.97;;;3.47;;
16593;SDS011;8410;52.532;13.336;2023-05-23T00:10:57;5.32;;;3.92;;
16593;SDS011;8410;52.532;13.336;2023-05-23T00:13:24;3.85;;;3.35;;
16593;SDS011;8410;52.532;13.336;2023-05-23T00:15:52;4.20;;;3.45;;
16593;SDS011;8410;52.532;13.336;2023-05-23T00:18:19;4.43;;;3.38;;
16593;SDS011;8410;52.532;13.336;2023-05-23T00:20:49;5.57;;;3.85;;
16593;SDS011;8410;52.532;13.336;2023-05-23T00:23:19;6.25;;;3.58;;
16593;SDS011;8410;52.532;13.336;2023-05-23T00:25:47;5.97;;;4.20;;
16593;SDS011;8410;52.532;13.336;2023-05-23T00:28:18;5.03;;;4.30;;
16593;SDS011;8410;52.532;13.336;2023-05-23T00:30:46;6.10;;;3.95;;
16593;SDS011;8410;52.532;13.336;2023-05-23T00:33:15;4.63;;;3.75;;
16593;SDS011;8410;52.532;13.336;2023-05-23T00:35:42;6.32;;;3.65;;
16593;SDS011;8410;52.532;13.336;2023-05-23T00:38:10;4.85;;;4.22;;
16593;SDS011;8410;52.532;13.336;2023-05-23T00:40:39;5.53;;;3.42;;
16593;SDS011;8410;52.532;13.336;2023-05-23T00:43:06;4.10;;;3.63;;
16593;SDS011;8410;52.532;13.336;2023-05-23T00:45:34;4.90;;;3.90;;
16593;SDS011;8410;52.532;13.336;2023-05-23T00:48:02;6.20;;;3.92;;
16593;SDS011;8410;52.532;13.336;2023-05-23T00:50:32;5.70;;;4.07;;
16593;SDS011;8410;52.532;13.336;2023-05-23T00:53:01;5.13;;;4.07;;
16593;SDS011;8410;52.532;13.336;2023-05-23T00:55:30;6.25;;;3.63;;
16593;SDS011;8410;52.532;13.336;2023-05-23T00:57:59;7.60;;;4.07;;
16593;SDS011;8410;52.532;13.336;2023-05-23T01:00:26;5.72;;;4.13;;
16593;SDS011;8410;52.532;13.336;2023-05-23T01:02:55;5.85;;;4.10;;
16593;SDS011;8410;52.532;13.336;2023-05-23T01:05:23;3.90;;;3.60;;
16593;SDS011;8410;52.532;13.336;2023-05-23T01:07:51;7.72;;;3.58;;
16593;SDS011;8410;52.532;13.336;2023-05-23T01:10:19;5.65;;;4.30;;
16593;SDS011;8410;52.532;13.336;2023-05-23T01:12:52;4.75;;;3.78;;
16593;SDS011;8410;52.532;13.336;2023-05-23T01:15:29;7.18;;;3.80;;
16593;SDS011;8410;52.532;13.336;2023-05-23T01:18:04;6.32;;;4.32;;
16593;SDS011;8410;52.532;13.336;2023-05-23T01:20:37;3.97;;;3.67;;
16593;SDS011;8410;52.532;13.336;2023-05-23T01:23:12;5.63;;;3.67;;
16593;SDS011;8410;52.532;13.336;2023-05-23T01:26:12;5.78;;;4.00;;
16593;SDS011;8410;52.532;13.336;2023-05-23T01:28:53;5.00;;;4.03;;
16593;SDS011;8410;52.532;13.336;2023-05-23T01:31:24;5.72;;;4.25;;
16593;SDS011;8410;52.532;13.336;2023-05-23T01:33:55;4.97;;;4.25;;
16593;SDS011;8410;52.532;13.336;2023-05-23T01:36:24;5.13;;;4.00;;
16593;SDS011;8410;52.532;13.336;2023-05-23T01:38:52;5.90;;;3.78;;
16593;SDS011;8410;52.532;13.336;2023-05-23T01:41:19;8.43;;;3.97;;
16593;SDS011;8410;52.532;13.336;2023-05-23T01:43:47;4.57;;;4.10;;
16593;SDS011;8410;52.532;13.336;2023-05-23T01:46:15;4.25;;;3.60;;
16593;SDS011;8410;52.532;13.336;2023-05-23T01:48:44;9.88;;;3.95;;
16593;SDS011;8410;52.532;13.336;2023-05-23T01:51:12;6.60;;;3.88;;
16593;SDS011;8410;52.532;13.336;2023-05-23T01:53:48;5.72;;;4.18;;
16593;SDS011;8410;52.532;13.336;2023-05-23T01:56:17;4.50;;;3.97;;
16593;SDS011;8410;52.532;13.336;2023-05-23T01:58:46;5.22;;;4.05;;
16593;SDS011;8410;52.532;13.336;2023-05-23T02:01:14;6.68;;;4.13;;
16593;SDS011;8410;52.532;13.336;2023-05-23T02:03:42;6.40;;;3.97;;
16593;SDS011;8410;52.532;13.336;2023-05-23T02:06:09;5.78;;;4.38;;
16593;SDS011;8410;52.532;13.336;2023-05-23T02:08:37;4.80;;;3.63;;
16593;SDS011;8410;52.532;13.336;2023-05-23T02:11:05;7.20;;;4.30;;
16593;SDS011;8410;52.532;13.336;2023-05-23T02:13:34;4.35;;;3.80;;
16593;SDS011;8410;52.532;13.336;2023-05-23T02:16:01;4.97;;;4.47;;
16593;SDS011;8410;52.532;13.336;2023-05-23T02:18:29;8.02;;;4.22;;
16593;SDS011;8410;52.532;13.336;2023-05-23T02:20:56;7.00;;;4.10;;
16593;SDS011;8410;52.532;13.336;2023-05-23T02:23:24;6.72;;;4.72;;
16593;SDS011;8410;52.532;13.336;2023-05-23T02:25:51;6.20;;;4.88;;
16593;SDS011;8410;52.532;13.336;2023-05-23T02:28:20;4.57;;;4.18;;
16593;SDS011;8410;52.532;13.336;2023-05-23T02:30:48;4.50;;;4.10;;
16593;SDS011;8410;52.532;13.336;2023-05-23T02:33:15;5.45;;;4.40;;
16593;SDS011;8410;52.532;13.336;2023-05-23T02:35:43;4.90;;;4.28;;
16593;SDS011;8410;52.532;13.336;2023-05-23T02:38:10;5.05;;;4.55;;
16593;SDS011;8410;52.532;13.336;2023-05-23T02:40:38;6.75;;;4.65;;
16593;SDS011;8410;52.532;13.336;2023-05-23T02:43:05;6.45;;;4.90;;
16593;SDS011;8410;52.532;13.336;2023-05-23T02:45:34;6.93;;;4.50;;
16593;SDS011;8410;52.532;13.336;2023-05-23T02:48:01;5.90;;;4.47;;
16593;SDS011;8410;52.532;13.336;2023-05-23T02:50:29;5.53;;;4.57;;
16593;SDS011;8410;52.532;13.336;2023-05-23T02:52:57;8.85;;;4.63;;
16593;SDS011;8410;52.532;13.336;2023-05-23T02:55:24;6.03;;;4.82;;
16593;SDS011;8410;52.532;13.336;2023-05-23T02:57:52;5.80;;;4.38;;
16593;SDS011;8410;52.532;13.336;2023-05-23T03:00:19;6.13;;;4.72;;
16593;SDS011;8410;52.532;13.336;2023-05-23T03:02:48;8.05;;;4.57;;
16593;SDS011;8410;52.532;13.336;2023-05-23T03:05:15;4.97;;;4.57;;
16593;SDS011;8410;52.532;13.336;2023-05-23T03:07:43;5.20;;;4.53;;
16593;SDS011;8410;52.532;13.336;2023-05-23T03:10:11;6.25;;;4.55;;
16593;SDS011;8410;52.532;13.336;2023-05-23T03:12:38;7.68;;;4.47;;
16593;SDS011;8410;52.532;13.336;2023-05-23T03:15:06;8.45;;;5.68;;
16593;SDS011;8410;52.532;13.336;2023-05-23T03:17:34;4.97;;;4.47;;
16593;SDS011;8410;52.532;13.336;2023-05-23T03:20:04;6.53;;;4.68;;
16593;SDS011;8410;52.532;13.336;2023-05-23T03:22:35;4.68;;;4.28;;
16593;SDS011;8410;52.532;13.336;2023-05-23T03:25:02;6.45;;;4.80;;
16593;SDS011;8410;52.532;13.336;2023-05-23T03:27:31;9.40;;;5.13;;
16593;SDS011;8410;52.532;13.336;2023-05-23T03:29:58;5.45;;;4.55;;
16593;SDS011;8410;52.532;13.336;2023-05-23T03:32:26;5.17;;;4.37;;
16593;SDS011;8410;52.532;13.336;2023-05-23T03:34:53;9.23;;;5.03;;
16593;SDS011;8410;52.532;13.336;2023-05-23T03:37:22;6.13;;;5.10;;
16593;SDS011;8410;52.532;13.336;2023-05-23T03:39:50;6.65;;;4.80;;
16593;SDS011;8410;52.532;13.336;2023-05-23T03:42:17;6.57;;;4.85;;
16593;SDS011;8410;52.532;13.336;2023-05-23T03:44:45;7.15;;;4.78;;
16593;SDS011;8410;52.532;13.336;2023-05-23T03:47:13;9.77;;;4.75;;
16593;SDS011;8410;52.532;13.336;2023-05-23T03:49:40;6.03;;;5.27;;
16593;SDS011;8410;52.532;13.336;2023-05-23T03:52:08;9.45;;;5.13;;
16593;SDS011;8410;52.532;13.336;2023-05-23T03:54:36;7.53;;;4.97;;
16593;SDS011;8410;52.532;13.336;2023-05-23T03:57:04;7.15;;;5.20;;
16593;SDS011;8410;52.532;13.336;2023-05-23T03:59:32;5.23;;;4.77;;
16593;SDS011;8410;52.532;13.336;2023-05-23T04:02:00;10.23;;;5.10;;
16593;SDS011;8410;52.532;13.336;2023-05-23T04:04:27;5.77;;;5.10;;
16593;SDS011;8410;52.532;13.336;2023-05-23T04:06:56;9.17;;;5.10;;
16593;SDS011;8410;52.532;13.336;2023-05-23T04:09:24;9.70;;;4.88;;
16593;SDS011;8410;52.532;13.336;2023-05-23T04:11:53;6.07;;;5.07;;
16593;SDS011;8410;52.532;13.336;2023-05-23T04:14:21;7.07;;;5.50;;
16593;SDS011;8410;52.532;13.336;2023-05-23T04:16:50;10.33;;;5.17;;
16593;SDS011;8410;52.532;13.336;2023-05-23T04:19:18;9.60;;;5.40;;
16593;SDS011;8410;52.532;13.336;2023-05-23T04:21:45;7.33;;;5.13;;
16593;SDS011;8410;52.532;13.336;2023-05-23T04:24:13;8.87;;;4.83;;
16593;SDS011;8410;52.532;13.336;2023-05-23T04:26:40;9.33;;;4.90;;
16593;SDS011;8410;52.532;13.336;2023-05-23T04:29:09;6.30;;;5.35;;
16593;SDS011;8410;52.532;13.336;2023-05-23T04:31:37;8.40;;;5.03;;
16593;SDS011;8410;52.532;13.336;2023-05-23T04:34:05;8.20;;;5.55;;
16593;SDS011;8410;52.532;13.336;2023-05-23T04:36:33;8.90;;;5.77;;
16593;SDS011;8410;52.532;13.336;2023-05-23T04:39:03;6.70;;;5.33;;
16593;SDS011;8410;52.532;13.336;2023-05-23T04:41:30;8.37;;;5.97;;
16593;SDS011;8410;52.532;13.336;2023-05-23T04:43:58;10.07;;;5.20;;
16593;SDS011;8410;52.532;13.336;2023-05-23T04:46:27;5.77;;;4.73;;
16593;SDS011;8410;52.532;13.336;2023-05-23T04:48:54;6.55;;;5.85;;
16593;SDS011;8410;52.532;13.336;2023-05-23T04:51:23;5.77;;;4.97;;
16593;SDS011;8410;52.532;13.336;2023-05-23T04:53:51;8.13;;;5.18;;
16593;SDS011;8410;52.532;13.336;2023-05-23T04:56:18;10.87;;;4.90;;
16593;SDS011;8410;52.532;13.336;2023-05-23T04:58:47;8.40;;;5.53;;
16593;SDS011;8410;52.532;13.336;2023-05-23T05:01:14;5.70;;;5.10;;
16593;SDS011;8410;52.532;13.336;2023-05-23T05:03:43;8.93;;;5.97;;
16593;SDS011;8410;52.532;13.336;2023-05-23T05:06:12;7.27;;;4.90;;
16593;SDS011;8410;52.532;13.336;2023-05-23T05:08:39;10.53;;;5.30;;
16593;SDS011;8410;52.532;13.336;2023-05-23T05:11:07;20.03;;;8.27;;
16593;SDS011;8410;52.532;13.336;2023-05-23T05:13:35;16.63;;;6.55;;
16593;SDS011;8410;52.532;13.336;2023-05-23T05:16:03;29.40;;;6.80;;
16593;SDS011;8410;52.532;13.336;2023-05-23T05:18:30;11.37;;;5.77;;
16593;SDS011;8410;52.532;13.336;2023-05-23T05:20:59;13.30;;;6.23;;
16593;SDS011;8410;52.532;13.336;2023-05-23T05:23:27;10.47;;;5.73;;
16593;SDS011;8410;52.532;13.336;2023-05-23T05:25:55;8.97;;;6.53;;
16593;SDS011;8410;52.532;13.336;2023-05-23T05:28:22;8.67;;;5.50;;
16593;SDS011;8410;52.532;13.336;2023-05-23T05:30:50;9.50;;;6.20;;
16593;SDS011;8410;52.532;13.336;2023-05-23T05:33:19;10.63;;;5.30;;
16593;SDS011;8410;52.532;13.336;2023-05-23T05:35:48;12.48;;;5.85;;
16593;SDS011;8410;52.532;13.336;2023-05-23T05:38:18;10.32;;;4.97;;
16593;SDS011;8410;52.532;13.336;2023-05-23T05:40:46;18.63;;;6.43;;
16593;SDS011;8410;52.532;13.336;2023-05-23T05:43:13;10.50;;;5.88;;
16593;SDS011;8410;52.532;13.336;2023-05-23T05:45:41;7.33;;;5.50;;
16593;SDS011;8410;52.532;13.336;2023-05-23T05:48:08;6.47;;;5.50;;
16593;SDS011;8410;52.532;13.336;2023-05-23T05:50:37;8.75;;;5.68;;
16593;SDS011;8410;52.532;13.336;2023-05-23T05:53:05;8.70;;;5.60;;
16593;SDS011;8410;52.532;13.336;2023-05-23T05:55:34;11.50;;;5.57;;
16593;SDS011;8410;52.532;13.336;2023-05-23T05:58:02;8.00;;;5.87;;
16593;SDS011;8410;52.532;13.336;2023-05-23T06:00:29;11.43;;;5.73;;
16593;SDS011;8410;52.532;13.336;2023-05-23T06:02:57;9.20;;;6.07;;
16593;SDS011;8410;52.532;13.336;2023-05-23T06:05:24;9.53;;;5.77;;
16593;SDS011;8410;52.532;13.336;2023-05-23T06:07:52;9.23;;;5.40;;
16593;SDS011;8410;52.532;13.336;2023-05-23T06:10:20;10.95;;;4.93;;
16593;SDS011;8410;52.532;13.336;2023-05-23T06:12:48;6.80;;;5.60;;
16593;SDS011;8410;52.532;13.336;2023-05-23T06:15:16;7.63;;;5.70;;
16593;SDS011;8410;52.532;13.336;2023-05-23T06:17:44;6.20;;;5.35;;
16593;SDS011;8410;52.532;13.336;2023-05-23T06:20:11;8.07;;;5.80;;
16593;SDS011;8410;52.532;13.336;2023-05-23T06:22:39;9.30;;;5.30;;
16593;SDS011;8410;52.532;13.336;2023-05-23T06:25:07;9.80;;;5.77;;
16593;SDS011;8410;52.532;13.336;2023-05-23T06:27:35;10.93;;;5.20;;
16593;SDS011;8410;52.532;13.336;2023-05-23T06:30:05;12.60;;;6.13;;
16593;SDS011;8410;52.532;13.336;2023-05-23T06:32:33;15.27;;;6.23;;
16593;SDS011;8410;52.532;13.336;2023-05-23T06:35:00;11.53;;;6.30;;
16593;SDS011;8410;52.532;13.336;2023-05-23T06:37:28;10.97;;;5.60;;
16593;SDS011;8410;52.532;13.336;2023-05-23T06:39:56;9.20;;;5.93;;
16593;SDS011;8410;52.532;13.336;2023-05-23T06:42:23;14.77;;;7.03;;
16593;SDS011;8410;52.532;13.336;2023-05-23T06:44:51;15.00;;;6.93;;
16593;SDS011;8410;52.532;13.336;2023-05-23T06:47:19;13.65;;;5.63;;
16593;SDS011;8410;52.532;13.336;2023-05-23T06:49:48;9.55;;;5.25;;
16593;SDS011;8410;52.532;13.336;2023-05-23T06:52:15;8.80;;;5.05;;
16593;SDS011;8410;52.532;13.336;2023-05-23T06:54:43;5.60;;;4.88;;
16593;SDS011;8410;52.532;13.336;2023-05-23T06:57:10;5.97;;;4.97;;
16593;SDS011;8410;52.532;13.336;2023-05-23T06:59:38;5.90;;;4.78;;
16593;SDS011;8410;52.532;13.336;2023-05-23T07:02:05;6.68;;;5.25;;
16593;SDS011;8410;52.532;13.336;2023-05-23T07:04:34;6.18;;;5.03;;
16593;SDS011;8410;52.532;13.336;2023-05-23T07:07:01;9.43;;;5.03;;
16593;SDS011;8410;52.532;13.336;2023-05-23T07:09:29;6.10;;;5.07;;
16593;SDS011;8410;52.532;13.336;2023-05-23T07:11:56;8.95;;;6.18;;
16593;SDS011;8410;52.532;13.336;2023-05-23T07:14:24;7.15;;;4.70;;
16593;SDS011;8410;52.532;13.336;2023-05-23T07:16:51;11.02;;;5.07;;
16593;SDS011;8410;52.532;13.336;2023-05-23T07:19:19;7.43;;;5.38;;
16593;SDS011;8410;52.532;13.336;2023-05-23T07:21:48;6.65;;;5.32;;
16593;SDS011;8410;52.532;13.336;2023-05-23T07:24:15;11.05;;;6.13;;
16593;SDS011;8410;52.532;13.336;2023-05-23T07:26:43;6.95;;;5.55;;
16593;SDS011;8410;52.532;13.336;2023-05-23T07:29:10;9.23;;;5.70;;
16593;SDS011;8410;52.532;13.336;2023-05-23T07:31:38;9.02;;;6.07;;
16593;SDS011;8410;52.532;13.336;2023-05-23T07:34:05;8.63;;;5.88;;
16593;SDS011;8410;52.532;13.336;2023-05-23T07:36:33;9.82;;;6.05;;
16593;SDS011;8410;52.532;13.336;2023-05-23T07:39:04;6.18;;;4.95;;
16593;SDS011;8410;52.532;13.336;2023-05-23T07:41:32;14.00;;;5.80;;
16593;SDS011;8410;52.532;13.336;2023-05-23T07:43:59;8.13;;;5.40;;
16593;SDS011;8410;52.532;13.336;2023-05-23T07:46:27;7.68;;;5.20;;
16593;SDS011;8410;52.532;13.336;2023-05-23T07:48:54;8.95;;;6.05;;
16593;SDS011;8410;52.532;13.336;2023-05-23T07:51:22;6.65;;;5.75;;
16593;SDS011;8410;52.532;13.336;2023-05-23T07:53:49;7.03;;;5.50;;
16593;SDS011;8410;52.532;13.336;2023-05-23T07:56:18;6.07;;;5.57;;
16593;SDS011;8410;52.532;13.336;2023-05-23T07:58:46;6.68;;;5.43;;
16593;SDS011;8410;52.532;13.336;2023-05-23T08:01:13;8.20;;;6.00;;
16593;SDS011;8410;52.532;13.336;2023-05-23T08:03:41;7.50;;;5.70;;
16593;SDS011;8410;52.532;13.336;2023-05-23T08:06:08;10.15;;;5.43;;
16593;SDS011;8410;52.532;13.336;2023-05-23T08:08:36;8.32;;;5.93;;
16593;SDS011;8410;52.532;13.336;2023-05-23T08:11:04;6.28;;;5.68;;
16593;SDS011;8410;52.532;13.336;2023-05-23T08:13:33;7.03;;;5.30;;
16593;SDS011;8410;52.532;13.336;2023-05-23T08:16:00;8.20;;;5.40;;
16593;SDS011;8410;52.532;13.336;2023-05-23T08:18:28;7.35;;;5.10;;
16593;SDS011;8410;52.532;13.336;2023-05-23T08:20:56;7.20;;;5.68;;
16593;SDS011;8410;52.532;13.336;2023-05-23T08:23:23;6.47;;;5.45;;
16593;SDS011;8410;52.532;13.336;2023-05-23T08:25:51;11.82;;;5.50;;
16593;SDS011;8410;52.532;13.336;2023-05-23T08:28:19;10.10;;;5.30;;
16593;SDS011;8410;52.532;13.336;2023-05-23T08:30:47;6.75;;;5.40;;
16593;SDS011;8410;52.532;13.336;2023-05-23T08:33:15;7.28;;;5.80;;
16593;SDS011;8410;52.532;13.336;2023-05-23T08:35:42;8.75;;;5.13;;
16593;SDS011;8410;52.532;13.336;2023-05-23T08:38:10;6.00;;;5.40;;
16593;SDS011;8410;52.532;13.336;2023-05-23T08:40:38;6.95;;;5.90;;
16593;SDS011;8410;52.532;13.336;2023-05-23T08:43:08;8.07;;;5.90;;
16593;SDS011;8410;52.532;13.336;2023-05-23T08:45:37;8.40;;;5.68;;
16593;SDS011;8410;52.532;13.336;2023-05-23T08:50:36;11.40;;;5.80;;
16593;SDS011;8410;52.532;13.336;2023-05-23T08:53:07;6.95;;;5.45;;
16593;SDS011;8410;52.532;13.336;2023-05-23T08:55:36;6.03;;;5.53;;
16593;SDS011;8410;52.532;13.336;2023-05-23T08:58:04;7.00;;;5.43;;
16593;SDS011;8410;52.532;13.336;2023-05-23T09:00:32;7.38;;;6.30;;
16593;SDS011;8410;52.532;13.336;2023-05-23T09:03:00;8.18;;;6.38;;
16593;SDS011;8410;52.532;13.336;2023-05-23T09:05:29;6.10;;;5.50;;
16593;SDS011;8410;52.532;13.336;2023-05-23T09:07:57;6.85;;;5.57;;
16593;SDS011;8410;52.532;13.336;2023-05-23T09:10:24;7.38;;;6.00;;
16593;SDS011;8410;52.532;13.336;2023-05-23T09:12:55;7.40;;;6.18;;
16593;SDS011;8410;52.532;13.336;2023-05-23T09:15:23;7.20;;;6.28;;
16593;SDS011;8410;52.532;13.336;2023-05-23T09:17:52;9.82;;;5.97;;
16593;SDS011;8410;52.532;13.336;2023-05-23T09:20:20;8.40;;;6.40;;
16593;SDS011;8410;52.532;13.336;2023-05-23T09:22:49;10.18;;;5.90;;
16593;SDS011;8410;52.532;13.336;2023-05-23T09:25:17;7.60;;;6.32;;
16593;SDS011;8410;52.532;13.336;2023-05-23T09:27:44;6.68;;;6.07;;
16593;SDS011;8410;52.532;13.336;2023-05-23T09:30:15;9.80;;;6.38;;
16593;SDS011;8410;52.532;13.336;2023-05-23T09:32:55;9.90;;;6.13;;
16593;SDS011;8410;52.532;13.336;2023-05-23T09:35:27;8.80;;;6.13;;
16593;SDS011;8410;52.532;13.336;2023-05-23T09:37:56;9.75;;;6.18;;
16593;SDS011;8410;52.532;13.336;2023-05-23T09:40:28;6.72;;;6.10;;
16593;SDS011;8410;52.532;13.336;2023-05-23T09:43:00;6.57;;;5.75;;
16593;SDS011;8410;52.532;13.336;2023-05-23T09:45:29;9.32;;;6.80;;
16593;SDS011;8410;52.532;13.336;2023-05-23T09:47:57;7.72;;;6.15;;
16593;SDS011;8410;52.532;13.336;2023-05-23T09:50:25;8.32;;;5.97;;
16593;SDS011;8410;52.532;13.336;2023-05-23T09:53:00;6.55;;;5.93;;
16593;SDS011;8410;52.532;13.336;2023-05-23T09:55:27;7.25;;;5.85;;
16593;SDS011;8410;52.532;13.336;2023-05-23T09:57:55;7.10;;;6.38;;
16593;SDS011;8410;52.532;13.336;2023-05-23T10:00:25;7.53;;;6.03;;
16593;SDS011;8410;52.532;13.336;2023-05-23T10:02:54;6.88;;;5.68;;
16593;SDS011;8410;52.532;13.336;2023-05-23T10:05:29;6.90;;;5.72;;
16593;SDS011;8410;52.532;13.336;2023-05-23T10:08:01;10.95;;;6.18;;
16593;SDS011;8410;52.532;13.336;2023-05-23T10:10:32;6.78;;;5.88;;
16593;SDS011;8410;52.532;13.336;2023-05-23T10:13:01;8.27;;;6.15;;
16593;SDS011;8410;52.532;13.336;2023-05-23T10:15:34;6.88;;;6.28;;
16593;SDS011;8410;52.532;13.336;2023-05-23T10:18:06;7.22;;;6.63;;
16593;SDS011;8410;52.532;13.336;2023-05-23T10:20:39;9.55;;;6.32;;
16593;SDS011;8410;52.532;13.336;2023-05-23T10:23:13;13.20;;;7.22;;
16593;SDS011;8410;52.532;13.336;2023-05-23T10:25:42;7.10;;;6.20;;
16593;SDS011;8410;52.532;13.336;2023-05-23T10:28:10;11.10;;;7.25;;
16593;SDS011;8410;52.532;13.336;2023-05-23T10:30:39;8.30;;;7.60;;
16593;SDS011;8410;52.532;13.336;2023-05-23T10:33:07;8.27;;;7.55;;
16593;SDS011;8410;52.532;13.336;2023-05-23T10:35:41;8.63;;;7.80;;
16593;SDS011;8410;52.532;13.336;2023-05-23T10:38:20;10.95;;;8.38;;
16593;SDS011;8410;52.532;13.336;2023-05-23T10:40:59;14.77;;;10.13;;
16593;SDS011;8410;52.532;13.336;2023-05-23T10:43:34;12.70;;;11.38;;
16593;SDS011;8410;52.532;13.336;2023-05-23T10:46:07;11.80;;;10.65;;
16593;SDS011;8410;52.532;13.336;2023-05-23T10:48:35;11.90;;;10.90;;
16593;SDS011;8410;52.532;13.336;2023-05-23T10:51:08;12.07;;;11.02;;
16593;SDS011;8410;52.532;13.336;2023-05-23T10:53:38;11.52;;;10.52;;
16593;SDS011;8410;52.532;13.336;2023-05-23T10:56:07;12.95;;;11.75;;
16593;SDS011;8410;52.532;13.336;2023-05-23T10:58:37;13.55;;;12.13;;
16593;SDS011;8410;52.532;13.336;2023-05-23T11:01:06;12.20;;;11.00;;
16593;SDS011;8410;52.532;13.336;2023-05-23T11:03:35;14.60;;;13.15;;
16593;SDS011;8410;52.532;13.336;2023-05-23T11:06:04;15.63;;;14.23;;
16593;SDS011;8410;52.532;13.336;2023-05-23T11:08:35;16.08;;;14.68;;
16593;SDS011;8410;52.532;13.336;2023-05-23T11:11:13;17.73;;;15.95;;
16593;SDS011;8410;52.532;13.336;2023-05-23T11:13:54;18.80;;;17.17;;
16593;SDS011;8410;52.532;13.336;2023-05-23T11:16:26;16.42;;;14.77;;
16593;SDS011;8410;52.532;13.336;2023-05-23T11:21:55;17.35;;;15.73;;
16593;SDS011;8410;52.532;13.336;2023-05-23T11:27:16;17.38;;;15.57;;
16593;SDS011;8410;52.532;13.336;2023-05-23T11:29:58;19.65;;;17.92;;
16593;SDS011;8410;52.532;13.336;2023-05-23T11:32:27;18.65;;;17.00;;
16593;SDS011;8410;52.532;13.336;2023-05-23T11:34:59;20.00;;;18.00;;
16593;SDS011;8410;52.532;13.336;2023-05-23T11:37:28;19.00;;;17.17;;
16593;SDS011;8410;52.532;13.336;2023-05-23T11:39:57;20.05;;;18.15;;
16593;SDS011;8410;52.532;13.336;2023-05-23T11:42:27;19.83;;;17.98;;
16593;SDS011;8410;52.532;13.336;2023-05-23T11:44:54;17.92;;;16.27;;
16593;SDS011;8410;52.532;13.336;2023-05-23T11:47:23;20.17;;;18.25;;
16593;SDS011;8410;52.532;13.336;2023-05-23T11:49:50;18.88;;;16.88;;
16593;SDS011;8410;52.532;13.336;2023-05-23T11:52:18;18.90;;;17.10;;
16593;SDS011;8410;52.532;13.336;2023-05-23T11:54:46;20.52;;;18.45;;
16593;SDS011;8410;52.532;13.336;2023-05-23T11:57:14;20.95;;;18.75;;
16593;SDS011;8410;52.532;13.336;2023-05-23T11:59:43;19.33;;;17.42;;
16593;SDS011;8410;52.532;13.336;2023-05-23T12:02:10;18.33;;;16.60;;
16593;SDS011;8410;52.532;13.336;2023-05-23T12:04:38;20.42;;;18.50;;
16593;SDS011;8410;52.532;13.336;2023-05-23T12:07:06;19.13;;;16.45;;
16593;SDS011;8410;52.532;13.336;2023-05-23T12:09:40;18.38;;;16.65;;
16593;SDS011;8410;52.532;13.336;2023-05-23T12:12:08;19.05;;;17.23;;
16593;SDS011;8410;52.532;13.336;2023-05-23T12:14:38;19.63;;;17.33;;
16593;SDS011;8410;52.532;13.336;2023-05-23T12:17:10;20.17;;;18.30;;
16593;SDS011;8410;52.532;13.336;2023-05-23T12:19:39;19.80;;;17.77;;
16593;SDS011;8410;52.532;13.336;2023-05-23T12:22:11;21.70;;;19.52;;
16593;SDS011;8410;52.532;13.336;2023-05-23T12:24:43;19.85;;;17.83;;
16593;SDS011;8410;52.532;13.336;2023-05-23T12:27:11;20.15;;;18.10;;
16593;SDS011;8410;52.532;13.336;2023-05-23T12:29:40;20.30;;;18.27;;
16593;SDS011;8410;52.532;13.336;2023-05-23T12:32:08;20.30;;;18.25;;
16593;SDS011;8410;52.532;13.336;2023-05-23T12:34:39;19.20;;;17.27;;
16593;SDS011;8410;52.532;13.336;2023-05-23T12:37:07;19.65;;;17.55;;
16593;SDS011;8410;52.532;13.336;2023-05-23T12:39:45;16.98;;;15.40;;
16593;SDS011;8410;52.532;13.336;2023-05-23T12:42:13;17.73;;;15.95;;
16593;SDS011;8410;52.532;13.336;2023-05-23T12:44:41;15.32;;;13.82;;
16593;SDS011;8410;52.532;13.336;2023-05-23T12:47:11;16.83;;;14.98;;
16593;SDS011;8410;52.532;13.336;2023-05-23T12:49:38;15.70;;;14.15;;
16593;SDS011;8410;52.532;13.336;2023-05-23T12:52:06;16.17;;;14.70;;
16593;SDS011;8410;52.532;13.336;2023-05-23T12:54:33;16.40;;;14.95;;
16593;SDS011;8410;52.532;13.336;2023-05-23T12:57:01;15.27;;;13.88;;
16593;SDS011;8410;52.532;13.336;2023-05-23T12:59:28;16.65;;;15.05;;
16593;SDS011;8410;52.532;13.336;2023-05-23T13:01:57;15.90;;;14.32;;
16593;SDS011;8410;52.532;13.336;2023-05-23T13:04:26;15.57;;;14.18;;
16593;SDS011;8410;52.532;13.336;2023-05-23T13:06:57;17.63;;;15.93;;
16593;SDS011;8410;52.532;13.336;2023-05-23T13:09:24;18.27;;;16.65;;
16593;SDS011;8410;52.532;13.336;2023-05-23T13:11:52;17.60;;;15.82;;
16593;SDS011;8410;52.532;13.336;2023-05-23T13:14:20;21.05;;;17.95;;
16593;SDS011;8410;52.532;13.336;2023-05-23T13:16:48;19.63;;;17.75;;
16593;SDS011;8410;52.532;13.336;2023-05-23T13:19:17;18.55;;;16.83;;
16593;SDS011;8410;52.532;13.336;2023-05-23T13:21:44;22.55;;;20.30;;
16593;SDS011;8410;52.532;13.336;2023-05-23T13:24:14;21.67;;;18.43;;
16593;SDS011;8410;52.532;13.336;2023-05-23T13:26:42;19.13;;;17.23;;
16593;SDS011;8410;52.532;13.336;2023-05-23T13:29:10;18.83;;;16.92;;
16593;SDS011;8410;52.532;13.336;2023-05-23T13:31:38;19.03;;;17.13;;
16593;SDS011;8410;52.532;13.336;2023-05-23T13:34:05;22.25;;;16.35;;
16593;SDS011;8410;52.532;13.336;2023-05-23T13:36:34;16.90;;;15.27;;
16593;SDS011;8410;52.532;13.336;2023-05-23T13:39:02;24.57;;;21.50;;
16593;SDS011;8410;52.532;13.336;2023-05-23T13:41:32;21.23;;;18.25;;
16593;SDS011;8410;52.532;13.336;2023-05-23T13:44:00;17.93;;;16.10;;
16593;SDS011;8410;52.532;13.336;2023-05-23T13:46:27;17.05;;;15.45;;
16593;SDS011;8410;52.532;13.336;2023-05-23T13:48:55;18.13;;;16.00;;
16593;SDS011;8410;52.532;13.336;2023-05-23T13:51:22;19.27;;;17.27;;
16593;SDS011;8410;52.532;13.336;2023-05-23T13:53:51;19.60;;;17.53;;
16593;SDS011;8410;52.532;13.336;2023-05-23T13:56:19;20.13;;;17.93;;
16593;SDS011;8410;52.532;13.336;2023-05-23T13:58:46;20.97;;;18.77;;
16593;SDS011;8410;52.532;13.336;2023-05-23T14:01:14;21.47;;;19.30;;
16593;SDS011;8410;52.532;13.336;2023-05-23T14:03:42;20.70;;;18.50;;
16593;SDS011;8410;52.532;13.336;2023-05-23T14:06:09;22.93;;;20.53;;
16593;SDS011;8410;52.532;13.336;2023-05-23T14:08:37;20.57;;;17.73;;
16593;SDS011;8410;52.532;13.336;2023-05-23T14:11:06;20.30;;;18.17;;
16593;SDS011;8410;52.532;13.336;2023-05-23T14:13:34;21.65;;;18.90;;
16593;SDS011;8410;52.532;13.336;2023-05-23T14:16:01;20.90;;;18.67;;
16593;SDS011;8410;52.532;13.336;2023-05-23T14:18:29;20.47;;;17.33;;
16593;SDS011;8410;52.532;13.336;2023-05-23T14:20:56;20.77;;;18.53;;
16593;SDS011;8410;52.532;13.336;2023-05-23T14:23:24;21.20;;;19.05;;
16593;SDS011;8410;52.532;13.336;2023-05-23T14:25:51;22.63;;;18.47;;
16593;SDS011;8410;52.532;13.336;2023-05-23T14:28:20;23.17;;;17.77;;
16593;SDS011;8410;52.532;13.336;2023-05-23T14:30:47;18.90;;;16.43;;
16593;SDS011;8410;52.532;13.336;2023-05-23T14:33:16;19.70;;;16.80;;
16593;SDS011;8410;52.532;13.336;2023-05-23T14:35:43;18.37;;;16.47;;
16593;SDS011;8410;52.532;13.336;2023-05-23T14:38:11;19.47;;;17.40;;
16593;SDS011;8410;52.532;13.336;2023-05-23T14:40:38;17.43;;;15.60;;
16593;SDS011;8410;52.532;13.336;2023-05-23T14:43:06;17.57;;;15.77;;
16593;SDS011;8410;52.532;13.336;2023-05-23T14:45:35;18.67;;;16.13;;
16593;SDS011;8410;52.532;13.336;2023-05-23T14:48:03;19.27;;;17.27;;
16593;SDS011;8410;52.532;13.336;2023-05-23T14:50:31;15.77;;;14.20;;
16593;SDS011;8410;52.532;13.336;2023-05-23T14:52:58;16.07;;;14.47;;
16593;SDS011;8410;52.532;13.336;2023-05-23T14:55:26;18.80;;;12.67;;